Accueil
Images satellite Prévisions 10 joursClimatMétéo marine Cyclones Foudre AéroportsFAQ Actualités A propos
Météo : Europe Afrique Amérique du Nord Amérique du Sud Asie Australie-Océanie Autres
Langues Contact

Coxyde, Belgique

Base aérienne de Coxyde

latitude: 51-05N, longitude: 002-39E, altitude: 4 m


METAR: EBFN 061455Z 31008KT 9999 FEW045 21/12 Q1020 BLU FCST CANCEL
TAF: EBFN 061141Z 0613/0622 30005KT 9999 FEW035 SCT050 BECMG 0620/0622 03005KT

Heure: 17:38 (15:38 UTC)

Observation

Le bulletin a été fait il y a 43 minutes, à 14:55 UTC
Vent 8 kt de nord-ouest
Température 21°C
Humidité 56%
Pression 1020 hPa
Visibilité 10 km ou plus
Quelques nuages à une hauteur de 4500 ft

Changer d'unités

Prévision

Le bulletin a été fait il y a 3 heures et 57 minutes, à 11:41 UTC
Prévision valable du 06 à 13 UTC au 06 à 22 UTC
Vent 5 kt de ouest/nord-ouest
Visibilité 10 km ou plus
Quelques nuages à une hauteur de 3500 ft
Nuages épars à une hauteur de 5000 ft
Evoluant progressivement
du 06 à 20 UTC au 06 à 22 UTC
Vent 5 kt de nord/nord-est
Les informations qui figurent sur ce site font l'objet d'une clause de non-responsabilité
Météo : Europe Afrique Amérique du Nord Amérique du Sud Asie Australie-Océanie Autres
Images satellite Prévisions 10 joursClimatMétéo marine Cyclones Foudre AéroportsFAQ Langues Contact Actualités A propos